createdAt,value
2018-04-27T00:00:08.258Z,82.70
2018-04-27T00:02:40.934Z,83.00
2018-04-27T00:05:13.588Z,83.10
2018-04-27T00:07:46.388Z,83.20
2018-04-27T00:10:18.975Z,83.30
2018-04-27T00:12:52.128Z,83.80
2018-04-27T00:15:24.524Z,83.50
2018-04-27T00:17:56.984Z,83.50
2018-04-27T00:20:29.554Z,83.90
2018-04-27T00:23:02.800Z,84.80
2018-04-27T00:25:35.438Z,84.60
2018-04-27T00:28:07.813Z,84.80
2018-04-27T00:30:40.968Z,85.60
2018-04-27T00:33:13.408Z,85.60
2018-04-27T00:35:45.759Z,85.60
2018-04-27T00:38:18.234Z,85.60
2018-04-27T00:40:51.514Z,85.20
2018-04-27T00:43:24.045Z,85.20
2018-04-27T00:45:56.570Z,85.70
2018-04-27T00:48:29.478Z,85.90
2018-04-27T00:51:01.950Z,86.20
2018-04-27T00:53:35.157Z,86.10
2018-04-27T00:56:07.677Z,86.10
2018-04-27T00:58:40.160Z,86.40
2018-04-27T01:01:12.834Z,86.30
2018-04-27T01:03:45.471Z,86.30
2018-04-27T01:06:18.900Z,86.90
2018-04-27T01:08:51.246Z,86.80
2018-04-27T01:11:24.099Z,86.80
2018-04-27T01:13:56.657Z,87.00
2018-04-27T01:16:29.220Z,87.00
2018-04-27T01:19:01.782Z,87.00
2018-04-27T01:21:34.953Z,87.20
2018-04-27T01:24:08.495Z,87.50
2018-04-27T01:26:41.101Z,87.50
2018-04-27T01:29:14.500Z,87.30
2018-04-27T01:31:47.206Z,87.30
2018-04-27T01:34:19.916Z,87.20
2018-04-27T01:36:52.463Z,87.00
2018-04-27T01:39:25.284Z,87.10
2018-04-27T01:41:57.748Z,86.90
2018-04-27T01:44:30.380Z,87.10
2018-04-27T01:47:02.967Z,87.00
2018-04-27T01:49:35.443Z,86.90
2018-04-27T01:52:08.569Z,87.70
2018-04-27T01:54:40.991Z,87.40
2018-04-27T01:57:14.276Z,87.80
2018-04-27T01:59:46.775Z,87.80
2018-04-27T02:02:19.987Z,87.90
2018-04-27T02:04:52.509Z,87.90
2018-04-27T02:07:24.959Z,88.20
2018-04-27T02:09:57.394Z,88.10
2018-04-27T02:12:30.001Z,88.20
2018-04-27T02:15:02.439Z,88.20
2018-04-27T02:17:35.607Z,88.10
2018-04-27T02:20:07.989Z,88.10
2018-04-27T02:22:40.449Z,87.80
2018-04-27T02:25:13.077Z,87.80
2018-04-27T02:27:45.870Z,87.90
2018-04-27T02:30:18.521Z,87.90
2018-04-27T02:32:51.232Z,88.00
2018-04-27T02:35:23.844Z,88.30
2018-04-27T02:37:56.436Z,88.20
2018-04-27T02:40:28.934Z,87.70
2018-04-27T02:43:02.846Z,87.80
2018-04-27T02:45:35.346Z,87.80
2018-04-27T02:48:08.209Z,88.10
2018-04-27T02:50:40.781Z,88.20
2018-04-27T02:53:13.136Z,87.90
2018-04-27T02:55:45.521Z,88.00
2018-04-27T02:58:17.974Z,88.40
2018-04-27T03:00:50.531Z,88.30
2018-04-27T03:03:23.127Z,88.40
2018-04-27T03:05:55.797Z,88.30
2018-04-27T03:08:29.137Z,88.40
2018-04-27T03:11:01.550Z,88.30
2018-04-27T03:13:34.561Z,88.30
2018-04-27T03:16:07.814Z,88.20
2018-04-27T03:18:40.315Z,88.20
2018-04-27T03:21:12.746Z,88.20
2018-04-27T03:23:45.434Z,88.20
2018-04-27T03:26:17.821Z,88.10
2018-04-27T03:28:50.407Z,88.10
2018-04-27T03:31:23.711Z,87.80
2018-04-27T03:33:57.277Z,88.20
2018-04-27T03:36:29.642Z,88.20
2018-04-27T03:39:03.116Z,88.50
2018-04-27T03:41:35.895Z,88.40
2018-04-27T03:44:08.699Z,88.40
2018-04-27T03:46:41.274Z,87.80
2018-04-27T03:49:13.605Z,87.80
2018-04-27T03:51:46.091Z,88.00
2018-04-27T03:54:18.654Z,88.30
2018-04-27T03:56:51.383Z,88.50
2018-04-27T03:59:36.645Z,88.80
2018-04-27T04:02:21.406Z,88.50
2018-04-27T04:05:06.193Z,88.40
2018-04-27T04:07:38.791Z,88.50
2018-04-27T04:10:11.416Z,88.80
2018-04-27T04:12:44.147Z,88.70
2018-04-27T04:15:16.834Z,88.70
2018-04-27T04:17:49.636Z,88.10
2018-04-27T04:20:22.153Z,88.20
2018-04-27T04:25:54.733Z,88.20
2018-04-27T04:28:28.253Z,88.00
2018-04-27T04:31:00.875Z,87.90
2018-04-27T04:33:33.269Z,87.80
2018-04-27T04:36:06.358Z,87.90
2018-04-27T04:38:38.775Z,87.90
2018-04-27T04:41:12.249Z,88.10
2018-04-27T04:43:44.631Z,87.70
2018-04-27T04:46:17.104Z,87.90
2018-04-27T04:48:49.596Z,87.80
2018-04-27T04:51:22.710Z,87.60
2018-04-27T04:53:55.056Z,87.60
2018-04-27T04:56:27.476Z,87.50
2018-04-27T04:58:59.988Z,87.20
2018-04-27T05:01:32.368Z,87.30
2018-04-27T05:04:04.839Z,87.40
2018-04-27T05:06:38.208Z,87.50
2018-04-27T05:09:10.774Z,87.50
2018-04-27T05:11:43.289Z,87.50
2018-04-27T05:14:15.888Z,87.80
2018-04-27T05:16:49.286Z,87.80
2018-04-27T05:19:21.905Z,87.80
2018-04-27T05:21:55.407Z,87.90
2018-04-27T05:24:28.027Z,88.00
2018-04-27T05:27:00.555Z,88.00
2018-04-27T05:29:33.150Z,88.50
2018-04-27T05:32:05.565Z,87.80
2018-04-27T05:34:38.245Z,88.00
2018-04-27T05:37:10.900Z,87.50
2018-04-27T05:39:43.884Z,87.20
2018-04-27T05:42:16.435Z,87.10
2018-04-27T05:44:49.158Z,86.60
2018-04-27T05:47:22.716Z,87.40
2018-04-27T05:49:55.214Z,86.80
2018-04-27T05:52:27.869Z,86.70
2018-04-27T05:55:00.394Z,86.70
2018-04-27T05:57:33.509Z,86.90
2018-04-27T06:00:06.820Z,86.80
2018-04-27T06:02:39.469Z,86.80
2018-04-27T06:05:11.891Z,86.30
2018-04-27T06:07:45.846Z,85.60
2018-04-27T06:10:18.258Z,85.50
2018-04-27T06:12:51.334Z,85.80
2018-04-27T06:15:23.974Z,85.50
2018-04-27T06:17:56.618Z,85.20
2018-04-27T06:20:29.225Z,85.10
2018-04-27T06:23:01.811Z,84.60
2018-04-27T06:25:34.279Z,84.00
2018-04-27T06:28:06.654Z,83.50
2018-04-27T06:30:39.098Z,83.90
2018-04-27T06:33:12.325Z,83.90
2018-04-27T06:35:45.612Z,83.30
2018-04-27T06:38:19.113Z,81.20
2018-04-27T06:40:51.781Z,80.50
2018-04-27T06:43:24.474Z,79.00
2018-04-27T06:45:58.813Z,76.30
2018-04-27T06:48:31.505Z,76.30
2018-04-27T06:51:04.939Z,68.10
2018-04-27T06:53:37.538Z,68.00
2018-04-27T06:56:10.746Z,67.20
2018-04-27T06:58:43.398Z,67.20
2018-04-27T07:01:15.904Z,65.40
2018-04-27T07:03:48.918Z,64.80
2018-04-27T07:06:21.575Z,64.10
2018-04-27T07:08:54.946Z,62.10
2018-04-27T07:11:27.620Z,62.10
2018-04-27T07:14:00.234Z,61.00
2018-04-27T07:16:32.969Z,58.20
2018-04-27T07:19:05.414Z,57.80
2018-04-27T07:21:38.076Z,57.40
2018-04-27T07:24:10.808Z,54.60
2018-04-27T07:26:49.685Z,53.20
2018-04-27T07:29:22.086Z,53.20
2018-04-27T07:31:54.728Z,55.00
2018-04-27T07:34:27.915Z,54.30
2018-04-27T07:37:00.601Z,54.30
2018-04-27T07:39:34.187Z,54.50
2018-04-27T07:42:06.775Z,54.40
2018-04-27T07:44:39.731Z,53.10
2018-04-27T07:47:12.141Z,52.90
2018-04-27T07:49:44.716Z,52.40
2018-04-27T07:52:17.458Z,50.80
2018-04-27T07:54:50.027Z,52.00
2018-04-27T07:57:22.866Z,52.50
2018-04-27T07:59:55.536Z,51.40
2018-04-27T08:02:28.254Z,52.50
2018-04-27T08:05:00.930Z,51.90
2018-04-27T08:07:33.629Z,50.80
2018-04-27T08:10:06.293Z,51.00
2018-04-27T08:12:38.989Z,50.90
2018-04-27T08:15:11.860Z,48.80
2018-04-27T08:17:45.294Z,50.50
2018-04-27T08:20:18.759Z,50.40
2018-04-27T08:22:51.365Z,49.30
2018-04-27T08:25:26.890Z,49.20
2018-04-27T08:27:59.588Z,47.20
2018-04-27T08:30:32.125Z,46.50
2018-04-27T08:33:05.532Z,47.30
2018-04-27T08:35:38.305Z,47.20
2018-04-27T08:38:10.808Z,47.60
2018-04-27T08:40:43.175Z,46.40
2018-04-27T08:43:16.670Z,46.90
2018-04-27T08:45:49.179Z,47.90
2018-04-27T08:48:21.839Z,47.90
2018-04-27T08:50:56.449Z,45.60
2018-04-27T08:53:29.041Z,42.80
2018-04-27T08:56:01.721Z,43.90
2018-04-27T08:58:34.411Z,45.40
2018-04-27T09:01:07.079Z,47.80
2018-04-27T09:03:39.917Z,47.40
2018-04-27T09:06:12.404Z,45.80
2018-04-27T09:08:44.821Z,45.80
2018-04-27T09:11:17.163Z,45.20
2018-04-27T09:13:49.648Z,45.30
2018-04-27T09:16:22.205Z,44.50
2018-04-27T09:18:54.792Z,41.90
2018-04-27T09:21:27.268Z,42.00
2018-04-27T09:24:00.057Z,42.70
2018-04-27T09:26:32.660Z,40.90
2018-04-27T09:29:05.162Z,41.20
2018-04-27T09:31:38.414Z,41.10
2018-04-27T09:34:11.743Z,41.40
2018-04-27T09:36:44.283Z,41.50
2018-04-27T09:39:16.745Z,43.70
2018-04-27T09:41:49.922Z,43.40
2018-04-27T09:44:22.596Z,43.30
2018-04-27T09:46:55.245Z,43.60
2018-04-27T09:49:27.909Z,42.70
2018-04-27T09:52:00.603Z,43.00
2018-04-27T09:54:33.914Z,43.10
2018-04-27T09:57:06.347Z,43.10
2018-04-27T09:59:38.801Z,43.40
2018-04-27T10:02:11.475Z,43.20
2018-04-27T10:04:45.025Z,43.40
2018-04-27T10:07:17.746Z,43.30
2018-04-27T10:09:50.283Z,43.10
2018-04-27T10:12:23.767Z,42.90
2018-04-27T10:14:56.377Z,42.80
2018-04-27T10:17:28.917Z,42.20
2018-04-27T10:20:02.117Z,43.10
2018-04-27T10:22:35.499Z,42.70
2018-04-27T10:25:08.099Z,42.60
2018-04-27T10:27:40.737Z,41.00
2018-04-27T10:30:13.217Z,40.80
2018-04-27T10:32:45.778Z,39.10
2018-04-27T10:35:18.205Z,39.80
2018-04-27T10:37:50.716Z,41.00
2018-04-27T10:40:23.331Z,42.50
2018-04-27T10:42:55.960Z,42.00
2018-04-27T10:45:28.388Z,41.60
2018-04-27T10:48:00.852Z,43.30
2018-04-27T10:50:33.350Z,41.20
2018-04-27T10:53:06.912Z,43.30
2018-04-27T10:55:39.363Z,44.00
2018-04-27T10:58:12.071Z,41.80
2018-04-27T11:00:44.537Z,41.70
2018-04-27T11:03:17.215Z,41.60
2018-04-27T11:05:49.651Z,41.90
2018-04-27T11:08:22.392Z,42.40
2018-04-27T11:10:55.080Z,41.50
2018-04-27T11:13:27.778Z,41.40
2018-04-27T11:16:00.258Z,39.50
2018-04-27T11:18:33.034Z,41.70
2018-04-27T11:21:06.038Z,39.80
2018-04-27T11:23:38.804Z,40.70
2018-04-27T11:26:11.307Z,39.90
2018-04-27T11:28:44.591Z,39.70
2018-04-27T11:31:17.807Z,38.60
2018-04-27T11:33:50.324Z,38.60
2018-04-27T11:36:23.589Z,38.20
2018-04-27T11:38:55.975Z,38.20
2018-04-27T11:41:29.204Z,39.10
2018-04-27T11:44:01.719Z,39.10
2018-04-27T11:46:34.629Z,39.40
2018-04-27T11:49:07.495Z,39.50
2018-04-27T11:51:40.904Z,40.50
2018-04-27T11:54:13.429Z,40.50
2018-04-27T11:56:46.706Z,38.60
2018-04-27T11:59:19.191Z,40.40
2018-04-27T12:01:51.911Z,38.40
2018-04-27T12:04:24.484Z,39.20
2018-04-27T12:06:57.043Z,37.20
2018-04-27T12:09:29.739Z,36.80
2018-04-27T12:12:03.122Z,37.80
2018-04-27T12:14:35.940Z,37.80
2018-04-27T12:17:08.674Z,38.80
2018-04-27T12:19:41.260Z,37.70
2018-04-27T12:22:13.874Z,37.20
2018-04-27T12:24:46.502Z,37.50
2018-04-27T12:27:19.168Z,37.80
2018-04-27T12:29:51.754Z,38.10
2018-04-27T12:32:24.297Z,37.70
2018-04-27T12:34:57.027Z,38.00
2018-04-27T12:37:30.365Z,36.90
2018-04-27T12:40:03.099Z,36.70
2018-04-27T12:42:40.854Z,38.60
2018-04-27T12:45:13.401Z,38.50
2018-04-27T12:47:45.979Z,38.50
2018-04-27T12:50:18.766Z,34.80
2018-04-27T12:52:51.264Z,37.30
2018-04-27T12:55:23.908Z,36.20
2018-04-27T12:57:56.800Z,36.60
2018-04-27T13:00:29.628Z,37.10
2018-04-27T13:03:02.973Z,38.10
2018-04-27T13:05:35.807Z,38.00
2018-04-27T13:08:08.490Z,36.70
2018-04-27T13:10:41.244Z,34.40
2018-04-27T13:13:13.791Z,34.30
2018-04-27T13:15:46.507Z,31.90
2018-04-27T13:18:19.151Z,31.30
2018-04-27T13:20:51.603Z,31.40
2018-04-27T13:23:24.124Z,28.60
2018-04-27T13:25:56.699Z,28.10
2018-04-27T13:28:29.399Z,28.20
2018-04-27T13:31:02.033Z,28.50
2018-04-27T13:33:34.594Z,28.90
2018-04-27T13:36:07.092Z,28.20
2018-04-27T13:38:39.775Z,27.90
2018-04-27T13:41:12.240Z,28.90
2018-04-27T13:43:44.783Z,29.80
2018-04-27T13:46:18.090Z,29.70
2018-04-27T13:48:50.781Z,29.60
2018-04-27T13:51:23.472Z,29.50
2018-04-27T13:53:56.966Z,32.00
2018-04-27T13:56:29.605Z,32.10
2018-04-27T13:59:02.196Z,32.40
2018-04-27T14:01:34.867Z,32.60
2018-04-27T14:04:07.289Z,33.20
2018-04-27T14:06:40.237Z,33.40
2018-04-27T14:09:12.764Z,33.70
2018-04-27T14:11:45.512Z,33.70
2018-04-27T14:14:19.661Z,33.90
2018-04-27T14:16:52.297Z,33.80
2018-04-27T14:19:25.915Z,33.30
2018-04-27T14:21:58.592Z,32.30
2018-04-27T14:24:31.274Z,33.70
2018-04-27T14:27:11.104Z,34.50
2018-04-27T14:29:43.661Z,35.60
2018-04-27T14:32:16.658Z,36.80
2018-04-27T14:34:49.348Z,35.10
2018-04-27T14:37:22.727Z,35.30
2018-04-27T14:39:55.311Z,35.30
2018-04-27T14:42:27.994Z,35.00
2018-04-27T14:45:00.811Z,35.00
2018-04-27T14:47:33.601Z,32.20
2018-04-27T14:50:06.376Z,34.90
2018-04-27T14:52:38.980Z,34.60
2018-04-27T14:55:11.937Z,34.40
2018-04-27T14:57:47.930Z,33.80
2018-04-27T15:00:24.724Z,34.70
2018-04-27T15:02:58.181Z,32.00
2018-04-27T15:05:30.832Z,32.00
2018-04-27T15:08:03.719Z,30.40
2018-04-27T15:10:36.657Z,30.10
2018-04-27T15:13:09.368Z,29.40
2018-04-27T15:15:42.009Z,31.50
2018-04-27T15:18:14.537Z,31.40
2018-04-27T15:20:47.001Z,31.00
2018-04-27T15:23:20.073Z,32.40
2018-04-27T15:25:52.634Z,31.50
2018-04-27T15:28:25.333Z,29.80
2018-04-27T15:30:57.963Z,30.70
2018-04-27T15:33:30.618Z,30.90
2018-04-27T15:36:04.396Z,30.00
2018-04-27T15:38:37.004Z,30.00
2018-04-27T15:41:09.656Z,30.30
2018-04-27T15:43:42.339Z,28.80
2018-04-27T15:46:15.012Z,29.30
2018-04-27T15:48:47.852Z,28.90
2018-04-27T15:51:21.343Z,29.30
2018-04-27T15:53:53.919Z,29.30
2018-04-27T15:56:26.667Z,28.70
2018-04-27T15:58:59.063Z,30.50
2018-04-27T16:01:31.694Z,30.30
2018-04-27T16:04:04.307Z,29.50
2018-04-27T16:06:36.992Z,29.40
2018-04-27T16:09:09.711Z,30.30
2018-04-27T16:11:42.830Z,30.50
2018-04-27T16:14:15.497Z,30.50
2018-04-27T16:16:48.209Z,30.90
2018-04-27T16:19:20.891Z,30.00
2018-04-27T16:21:53.536Z,29.80
2018-04-27T16:24:26.249Z,30.30
2018-04-27T16:26:58.922Z,31.50
2018-04-27T16:29:31.740Z,30.00
2018-04-27T16:32:04.451Z,29.40
2018-04-27T16:34:37.726Z,30.60
2018-04-27T16:37:10.336Z,30.50
2018-04-27T16:39:42.771Z,30.80
2018-04-27T16:42:15.288Z,31.40
2018-04-27T16:44:48.027Z,29.60
2018-04-27T16:47:20.702Z,28.80
2018-04-27T16:49:53.316Z,30.50
2018-04-27T16:52:26.183Z,31.80
2018-04-27T16:54:58.823Z,32.70
2018-04-27T16:57:31.631Z,33.60
2018-04-27T17:00:04.201Z,34.00
2018-04-27T17:02:36.856Z,34.80
2018-04-27T17:05:09.332Z,36.00
2018-04-27T17:07:42.174Z,36.30
2018-04-27T17:10:14.781Z,36.50
2018-04-27T17:12:48.050Z,35.90
2018-04-27T17:15:20.587Z,36.60
2018-04-27T17:17:53.222Z,37.80
2018-04-27T17:20:25.887Z,39.50
2018-04-27T17:22:58.578Z,38.60
2018-04-27T17:25:31.857Z,38.80
2018-04-27T17:28:04.431Z,38.80
2018-04-27T17:30:36.989Z,39.70
2018-04-27T17:33:09.659Z,39.90
2018-04-27T17:35:42.291Z,39.80
2018-04-27T17:38:15.059Z,39.70
2018-04-27T17:40:47.636Z,40.40
2018-04-27T17:43:20.116Z,40.10
2018-04-27T17:45:52.874Z,41.10
2018-04-27T17:48:25.580Z,40.80
2018-04-27T17:50:58.424Z,43.70
2018-04-27T17:53:31.768Z,42.00
2018-04-27T17:56:04.460Z,41.80
2018-04-27T17:58:37.119Z,43.50
2018-04-27T18:01:09.770Z,42.90
2018-04-27T18:03:43.108Z,44.30
2018-04-27T18:06:17.469Z,45.10
2018-04-27T18:08:50.859Z,44.30
2018-04-27T18:11:23.524Z,44.20
2018-04-27T18:13:56.920Z,45.20
2018-04-27T18:16:30.142Z,45.10
2018-04-27T18:19:02.820Z,48.00
2018-04-27T18:21:35.387Z,46.50
2018-04-27T18:24:07.928Z,47.70
2018-04-27T18:26:40.466Z,49.10
2018-04-27T18:29:13.060Z,47.80
2018-04-27T18:31:45.660Z,47.80
2018-04-27T18:34:18.384Z,49.40
2018-04-27T18:36:51.011Z,48.80
2018-04-27T18:39:23.829Z,50.90
2018-04-27T18:41:57.088Z,51.60
2018-04-27T18:44:29.999Z,52.20
2018-04-27T18:47:02.592Z,50.50
2018-04-27T18:49:35.333Z,51.80
2018-04-27T18:52:08.045Z,52.50
2018-04-27T18:54:40.727Z,54.50
2018-04-27T18:57:13.465Z,53.10
2018-04-27T18:59:46.045Z,53.40
2018-04-27T19:02:19.747Z,53.70
2018-04-27T19:04:52.919Z,52.90
2018-04-27T19:07:27.087Z,53.20
2018-04-27T19:10:00.721Z,55.00
2018-04-27T19:12:34.447Z,55.00
2018-04-27T19:15:08.185Z,54.50
2018-04-27T19:17:40.869Z,54.50
2018-04-27T19:20:13.741Z,54.70
2018-04-27T19:22:46.692Z,55.00
2018-04-27T19:25:19.353Z,56.10
2018-04-27T19:27:52.208Z,54.70
2018-04-27T19:30:24.903Z,56.00
2018-04-27T19:32:57.517Z,56.20
2018-04-27T19:35:30.185Z,56.30
2018-04-27T19:38:02.994Z,57.30
2018-04-27T19:40:36.612Z,57.10
2018-04-27T19:43:09.581Z,58.40
2018-04-27T19:45:42.083Z,57.70
2018-04-27T19:48:14.711Z,58.00
2018-04-27T19:50:47.366Z,58.80
2018-04-27T19:53:20.144Z,58.50
2018-04-27T19:55:52.760Z,59.40
2018-04-27T19:58:25.671Z,58.90
2018-04-27T20:00:58.941Z,59.60
2018-04-27T20:03:31.708Z,59.60
2018-04-27T20:06:04.958Z,59.20
2018-04-27T20:08:38.215Z,59.60
2018-04-27T20:11:11.565Z,61.30
2018-04-27T20:13:44.282Z,61.30
2018-04-27T20:16:29.133Z,61.20
2018-04-27T20:19:01.639Z,61.30
2018-04-27T20:21:34.314Z,61.80
2018-04-27T20:24:07.842Z,61.80
2018-04-27T20:26:40.472Z,63.50
2018-04-27T20:29:14.000Z,62.40
2018-04-27T20:31:46.936Z,62.40
2018-04-27T20:34:19.427Z,63.10
2018-04-27T20:36:52.177Z,63.80
2018-04-27T20:39:24.896Z,64.50
2018-04-27T20:41:57.488Z,64.80
2018-04-27T20:44:30.130Z,64.20
2018-04-27T20:47:02.661Z,64.20
2018-04-27T20:49:36.076Z,64.20
2018-04-27T20:52:08.652Z,64.20
2018-04-27T20:54:42.125Z,64.80
2018-04-27T20:57:14.709Z,64.60
2018-04-27T20:59:47.309Z,64.60
2018-04-27T21:02:20.019Z,63.60
2018-04-27T21:04:52.834Z,64.80
2018-04-27T21:07:26.367Z,65.20
2018-04-27T21:09:58.960Z,65.20
2018-04-27T21:12:33.440Z,66.90
2018-04-27T21:15:09.896Z,66.80
2018-04-27T21:17:48.298Z,67.10
2018-04-27T21:20:21.100Z,67.10
2018-04-27T21:22:53.810Z,67.20
2018-04-27T21:25:30.177Z,66.50
2018-04-27T21:28:05.645Z,65.00
2018-04-27T21:30:38.332Z,64.90
2018-04-27T21:33:11.736Z,64.60
2018-04-27T21:35:52.302Z,64.60
2018-04-27T21:38:43.739Z,65.20
2018-04-27T21:44:29.189Z,66.60
2018-04-27T21:47:13.841Z,65.90
2018-04-27T21:49:47.283Z,66.60
2018-04-27T21:52:30.028Z,66.50
2018-04-27T21:55:05.540Z,67.00
2018-04-27T22:00:33.705Z,66.80
2018-04-27T22:03:10.088Z,66.40
2018-04-27T22:05:43.596Z,66.30
2018-04-27T22:08:16.701Z,66.20
2018-04-27T22:10:49.855Z,65.40
2018-04-27T22:13:31.853Z,67.50
2018-04-27T22:16:04.309Z,66.90
2018-04-27T22:18:36.887Z,68.30
2018-04-27T22:21:09.516Z,66.50
2018-04-27T22:23:42.180Z,66.80
2018-04-27T22:26:18.384Z,66.70
2018-04-27T22:28:51.891Z,66.30
2018-04-27T22:31:26.345Z,66.20
2018-04-27T22:34:03.869Z,67.30
2018-04-27T22:36:38.965Z,66.70
2018-04-27T22:39:18.718Z,66.60
2018-04-27T22:41:55.089Z,66.80
2018-04-27T22:44:38.591Z,66.30
2018-04-27T22:47:13.245Z,66.20
2018-04-27T22:49:46.756Z,66.80
2018-04-27T22:52:19.585Z,66.80
2018-04-27T22:54:52.104Z,66.10
2018-04-27T22:57:32.887Z,67.10
2018-04-27T23:00:11.619Z,65.20
2018-04-27T23:02:45.919Z,66.60
2018-04-27T23:05:35.886Z,65.40
2018-04-27T23:08:09.150Z,65.40
2018-04-27T23:10:49.654Z,65.70
2018-04-27T23:13:38.993Z,66.20
2018-04-27T23:16:12.245Z,66.00
2018-04-27T23:18:45.769Z,66.00
2018-04-27T23:21:33.179Z,66.50
2018-04-27T23:24:05.769Z,66.80
2018-04-27T23:26:38.600Z,67.50
2018-04-27T23:29:11.199Z,67.90
2018-04-27T23:31:44.667Z,67.90
2018-04-27T23:34:19.120Z,68.40
2018-04-27T23:36:54.243Z,68.30
2018-04-27T23:39:27.106Z,68.20
2018-04-27T23:41:59.617Z,68.10
2018-04-27T23:44:32.033Z,67.70
2018-04-27T23:47:04.475Z,68.80
2018-04-27T23:49:37.096Z,69.10
2018-04-27T23:52:09.781Z,69.70
2018-04-27T23:54:43.036Z,70.70
2018-04-27T23:57:18.378Z,70.70
2018-04-27T23:59:53.041Z,71.90
